GOOD

Diourbel Airport

Diourbel, Senegal
METAR GOOD 161500Z 06004KT CAVOK 35/12 Q1012
Observed Flight Rules
Nov-16 @ 15:00 UTC (an hour ago) Visual Flight Rules
Wind Visibility Clouds
60° at 4 knots 10,000+ meters
  • Clear skies
Temperatures Readings
Current 35°C / 95°F
Dewpoint 12°C / 54°F
Humidity 25%
Altimeter 29.88" Hg
Pressure 1012 hPa
Elevation 9
METAR GOOD 161500Z 06004KT CAVOK 35/12 Q1012
Observed Flight Rules
Nov-16 @ 15:00 UTC
(an hour ago)
VFR
Wind Visibility
60° at 4 knots 10,000+ meters
Clouds
  • Clear skies
Temperature Dewpoint
35°C / 95°F 12°C / 54°F
Humidity Altimeter Pressure
25% 29.88" Hg 1012 hPa